createdAt,value
2018-12-05T00:02:03.212Z,55.03
2018-12-05T00:04:33.611Z,46.43
2018-12-05T00:07:04.243Z,44.43
2018-12-05T00:09:34.619Z,49.40
2018-12-05T00:12:05.181Z,49.23
2018-12-05T00:14:35.610Z,40.27
2018-12-05T00:17:06.092Z,46.47
2018-12-05T00:19:36.654Z,41.67
2018-12-05T00:22:07.123Z,45.13
2018-12-05T00:24:37.620Z,45.27
2018-12-05T00:27:08.168Z,41.40
2018-12-05T00:29:38.649Z,38.23
2018-12-05T00:32:11.373Z,42.53
2018-12-05T00:34:41.870Z,41.40
2018-12-05T00:37:12.272Z,43.53
2018-12-05T00:39:42.751Z,38.83
2018-12-05T00:42:13.208Z,37.97
2018-12-05T00:44:44.705Z,38.80
2018-12-05T00:47:15.153Z,38.63
2018-12-05T00:49:45.652Z,38.10
2018-12-05T00:52:17.403Z,39.47
2018-12-05T00:54:47.868Z,40.97
2018-12-05T00:57:18.330Z,39.63
2018-12-05T00:59:49.385Z,34.20
2018-12-05T01:02:19.852Z,41.27
2018-12-05T01:04:50.301Z,40.87
2018-12-05T01:07:20.920Z,35.90
2018-12-05T01:09:51.320Z,40.83
2018-12-05T01:12:21.919Z,35.43
2018-12-05T01:14:52.341Z,41.73
2018-12-05T01:17:24.165Z,38.87
2018-12-05T01:19:54.633Z,44.80
2018-12-05T01:22:25.058Z,48.13
2018-12-05T01:24:55.527Z,51.70
2018-12-05T01:27:26.035Z,49.30
2018-12-05T01:29:56.454Z,47.67
2018-12-05T01:32:27.069Z,51.03
2018-12-05T01:34:57.512Z,48.73
2018-12-05T01:37:28.000Z,46.10
2018-12-05T01:39:58.468Z,51.23
2018-12-05T01:42:29.162Z,47.07
2018-12-05T01:44:59.712Z,55.00
2018-12-05T01:47:30.228Z,51.43
2018-12-05T01:50:00.738Z,54.43
2018-12-05T01:52:32.159Z,56.13
2018-12-05T01:55:02.609Z,54.13
2018-12-05T01:57:33.113Z,50.23
2018-12-05T02:00:03.666Z,58.10
2018-12-05T02:02:34.102Z,58.40
2018-12-05T02:05:04.854Z,60.33
2018-12-05T02:07:35.294Z,57.10
2018-12-05T02:10:06.174Z,51.87
2018-12-05T02:12:36.580Z,60.17
2018-12-05T02:15:07.495Z,59.57
2018-12-05T02:17:37.988Z,65.43
2018-12-05T02:20:08.688Z,58.97
2018-12-05T02:22:39.159Z,68.30
2018-12-05T02:25:09.716Z,68.03
2018-12-05T02:27:40.262Z,70.80
2018-12-05T02:30:10.750Z,65.47
2018-12-05T02:32:43.153Z,71.63
2018-12-05T02:35:13.612Z,74.60
2018-12-05T02:37:44.041Z,75.73
2018-12-05T02:40:14.848Z,79.23
2018-12-05T02:42:45.291Z,70.83
2018-12-05T02:45:15.842Z,79.30
2018-12-05T02:47:46.362Z,75.00
2018-12-05T02:50:16.907Z,80.30
2018-12-05T02:52:47.399Z,77.73
2018-12-05T02:55:17.893Z,67.93
2018-12-05T02:57:48.377Z,69.30
2018-12-05T03:00:18.822Z,77.23
2018-12-05T03:02:49.340Z,69.53
2018-12-05T03:05:19.775Z,72.63
2018-12-05T03:07:50.326Z,73.87
2018-12-05T03:10:20.746Z,76.83
2018-12-05T03:12:54.981Z,75.10
2018-12-05T03:15:25.500Z,73.83
2018-12-05T03:17:56.041Z,72.07
2018-12-05T03:20:26.519Z,64.30
2018-12-05T03:22:56.922Z,67.50
2018-12-05T03:25:28.565Z,72.27
2018-12-05T03:27:59.060Z,75.13
2018-12-05T03:30:29.587Z,74.80
2018-12-05T03:33:00.128Z,73.37
2018-12-05T03:35:35.438Z,66.03
2018-12-05T03:38:05.885Z,69.90
2018-12-05T03:40:36.509Z,63.87
2018-12-05T03:43:07.075Z,71.17
2018-12-05T03:45:37.574Z,66.87
2018-12-05T03:48:08.090Z,67.83
2018-12-05T03:50:38.456Z,70.50
2018-12-05T03:53:09.333Z,71.73
2018-12-05T03:55:39.773Z,80.00
2018-12-05T03:58:10.259Z,72.70
2018-12-05T04:00:40.787Z,72.93
2018-12-05T04:03:11.231Z,75.67
2018-12-05T04:05:41.705Z,78.73
2018-12-05T04:08:12.245Z,79.87
2018-12-05T04:10:42.728Z,83.00
2018-12-05T04:13:21.081Z,94.70
2018-12-05T04:15:51.594Z,85.97
2018-12-05T04:18:22.021Z,93.10
2018-12-05T04:20:52.604Z,89.00
2018-12-05T04:23:23.002Z,98.27
2018-12-05T04:25:53.512Z,111.73
2018-12-05T04:28:23.981Z,106.93
2018-12-05T04:30:54.460Z,108.53
2018-12-05T04:33:26.971Z,116.70
2018-12-05T04:35:57.429Z,116.23
2018-12-05T04:38:27.984Z,116.07
2018-12-05T04:40:58.555Z,114.33
2018-12-05T04:43:29.037Z,121.90
2018-12-05T04:45:59.563Z,115.17
2018-12-05T04:48:30.973Z,110.77
2018-12-05T04:51:01.479Z,127.27
2018-12-05T04:53:31.992Z,116.07
2018-12-05T04:56:02.536Z,135.87
2018-12-05T04:58:33.063Z,131.53
2018-12-05T05:01:03.490Z,138.83
2018-12-05T05:03:33.953Z,142.13
2018-12-05T05:06:04.457Z,119.67
2018-12-05T05:08:34.984Z,140.93
2018-12-05T05:11:05.406Z,132.83
2018-12-05T05:13:35.895Z,120.00
2018-12-05T05:16:06.465Z,130.93
2018-12-05T05:18:36.986Z,133.70
2018-12-05T05:21:07.503Z,134.67
2018-12-05T05:23:37.966Z,149.53
2018-12-05T05:26:08.457Z,141.73
2018-12-05T05:28:38.944Z,150.13
2018-12-05T05:31:09.505Z,153.13
2018-12-05T05:33:40.177Z,150.07
2018-12-05T05:36:11.818Z,162.83
2018-12-05T05:38:43.224Z,165.73
2018-12-05T05:41:13.789Z,166.30
2018-12-05T05:43:44.281Z,181.08
2018-12-05T05:52:15.729Z,173.23
2018-12-05T05:54:46.240Z,168.27
2018-12-05T05:57:16.831Z,160.37
2018-12-05T05:59:47.305Z,182.70
2018-12-05T06:02:17.869Z,178.13
2018-12-05T06:04:48.390Z,178.30
2018-12-05T06:07:18.918Z,170.60
2018-12-05T06:09:49.593Z,159.23
2018-12-05T06:12:20.067Z,162.47
2018-12-05T06:14:50.588Z,152.80
2018-12-05T06:17:21.049Z,142.77
2018-12-05T06:19:51.435Z,154.03
2018-12-05T06:22:21.997Z,141.93
2018-12-05T06:24:52.418Z,135.13
2018-12-05T06:27:22.893Z,133.80
2018-12-05T06:29:54.339Z,134.03
2018-12-05T06:32:24.815Z,122.00
2018-12-05T06:34:55.228Z,136.30
2018-12-05T06:37:25.763Z,145.60
2018-12-05T06:39:56.183Z,140.73
2018-12-05T06:42:26.722Z,132.00
2018-12-05T06:44:57.188Z,119.03
2018-12-05T06:47:27.989Z,118.70
2018-12-05T06:49:58.949Z,120.60
2018-12-05T06:52:29.443Z,118.67
2018-12-05T06:54:59.920Z,105.70
2018-12-05T06:57:30.406Z,96.17
2018-12-05T07:00:02.265Z,84.47
2018-12-05T07:02:32.675Z,84.30
2018-12-05T07:05:03.207Z,86.03
2018-12-05T07:07:33.670Z,79.33
2018-12-05T07:10:05.373Z,83.40
2018-12-05T07:12:35.918Z,67.37
2018-12-05T07:15:06.682Z,65.67
2018-12-05T07:17:37.180Z,78.83
2018-12-05T07:20:09.669Z,71.80
2018-12-05T07:22:40.149Z,71.10
2018-12-05T07:25:10.704Z,68.50
2018-12-05T07:27:41.154Z,63.10
2018-12-05T07:30:12.983Z,62.53
2018-12-05T07:32:43.589Z,63.87
2018-12-05T07:35:14.081Z,56.83
2018-12-05T07:37:44.556Z,63.87
2018-12-05T07:40:15.109Z,57.60
2018-12-05T07:42:45.718Z,58.07
2018-12-05T07:45:16.221Z,53.80
2018-12-05T07:47:46.761Z,55.40
2018-12-05T07:50:17.569Z,58.20
2018-12-05T07:52:48.102Z,61.93
2018-12-05T07:55:18.541Z,65.33
2018-12-05T07:57:48.980Z,63.93
2018-12-05T08:00:19.467Z,59.50
2018-12-05T08:02:50.001Z,66.43
2018-12-05T08:05:20.552Z,57.13
2018-12-05T08:07:51.074Z,59.17
2018-12-05T08:10:21.667Z,65.63
2018-12-05T08:12:52.097Z,62.17
2018-12-05T08:15:22.699Z,65.47
2018-12-05T08:17:53.214Z,51.33
2018-12-05T08:20:23.834Z,52.93
2018-12-05T08:22:54.405Z,50.27
2018-12-05T08:25:24.919Z,54.13
2018-12-05T08:27:55.570Z,48.87
2018-12-05T08:30:26.204Z,52.57
2018-12-05T08:32:56.747Z,48.40
2018-12-05T08:35:27.237Z,45.07
2018-12-05T08:37:57.724Z,41.17
2018-12-05T08:40:28.362Z,40.27
2018-12-05T08:42:58.884Z,40.10
2018-12-05T08:45:29.477Z,39.40
2018-12-05T08:48:00.009Z,39.97
2018-12-05T08:50:31.364Z,39.40
2018-12-05T08:53:01.833Z,33.93
2018-12-05T08:55:38.879Z,40.13
2018-12-05T08:58:09.300Z,38.73
2018-12-05T09:00:39.799Z,41.17
2018-12-05T09:03:10.285Z,34.57
2018-12-05T09:05:40.856Z,38.87
2018-12-05T09:08:12.483Z,38.90
2018-12-05T09:10:43.015Z,36.03
2018-12-05T09:13:14.703Z,33.50
2018-12-05T09:15:45.306Z,36.27
2018-12-05T09:18:15.974Z,32.63
2018-12-05T09:20:46.518Z,28.97
2018-12-05T09:23:17.037Z,29.60
2018-12-05T09:25:47.624Z,31.33
2018-12-05T09:28:18.190Z,33.23
2018-12-05T09:30:49.024Z,34.80
2018-12-05T09:33:19.539Z,32.90
2018-12-05T09:35:50.045Z,33.83
2018-12-05T09:38:20.511Z,34.97
2018-12-05T09:40:51.317Z,34.40
2018-12-05T09:43:21.937Z,24.80
2018-12-05T09:45:52.470Z,27.63
2018-12-05T09:48:22.939Z,25.90
2018-12-05T09:50:53.537Z,28.10
2018-12-05T09:53:24.084Z,34.17
2018-12-05T09:55:54.628Z,30.60
2018-12-05T09:58:25.149Z,29.37
2018-12-05T10:00:55.850Z,33.63
2018-12-05T10:03:26.338Z,35.13
2018-12-05T10:05:56.931Z,36.00
2018-12-05T10:08:27.610Z,32.70
2018-12-05T10:11:01.435Z,32.27
2018-12-05T10:13:33.099Z,37.07
2018-12-05T10:16:03.568Z,35.20
2018-12-05T10:18:34.088Z,41.57
2018-12-05T10:21:04.605Z,40.50
2018-12-05T10:23:35.233Z,41.63
2018-12-05T10:26:05.797Z,44.00
2018-12-05T10:28:36.312Z,44.03
2018-12-05T10:31:06.850Z,50.87
2018-12-05T10:33:37.666Z,49.13
2018-12-05T10:36:08.212Z,51.27
2018-12-05T10:38:38.760Z,52.57
2018-12-05T10:41:09.272Z,50.50
2018-12-05T10:43:39.823Z,53.10
2018-12-05T10:46:10.293Z,54.13
2018-12-05T10:48:40.960Z,52.53
2018-12-05T10:51:11.686Z,56.97
2018-12-05T10:53:42.174Z,55.87
2018-12-05T10:56:12.742Z,57.23
2018-12-05T10:58:43.274Z,60.17
2018-12-05T11:01:18.714Z,57.13
2018-12-05T11:03:49.218Z,60.10
2018-12-05T11:06:24.769Z,61.47
2018-12-05T11:09:00.211Z,67.37
2018-12-05T11:11:37.818Z,61.17
2018-12-05T11:14:13.143Z,63.60
2018-12-05T11:16:50.322Z,70.37
2018-12-05T11:19:25.829Z,83.63
2018-12-05T11:22:01.314Z,79.77
2018-12-05T11:24:34.687Z,74.13
2018-12-05T11:27:05.184Z,85.27
2018-12-05T11:29:35.696Z,87.20
2018-12-05T11:32:06.132Z,81.63
2018-12-05T11:34:36.766Z,80.37
2018-12-05T11:37:07.841Z,73.57
2018-12-05T11:39:38.379Z,77.57
2018-12-05T11:42:08.928Z,77.37
2018-12-05T11:44:39.440Z,76.87
2018-12-05T11:47:09.903Z,70.90
2018-12-05T11:49:40.399Z,71.77
2018-12-05T11:52:11.010Z,74.20
2018-12-05T11:54:41.540Z,79.07
2018-12-05T11:57:12.056Z,81.90
2018-12-05T11:59:42.670Z,71.60
2018-12-05T12:02:13.253Z,71.17
2018-12-05T12:04:43.870Z,76.53
2018-12-05T12:07:14.343Z,70.33
2018-12-05T12:09:44.963Z,77.03
2018-12-05T12:12:20.515Z,71.03
2018-12-05T12:14:51.082Z,80.10
2018-12-05T12:17:21.643Z,77.53
2018-12-05T12:19:52.069Z,70.37
2018-12-05T12:22:22.629Z,72.30
2018-12-05T12:24:53.174Z,76.43
2018-12-05T12:27:24.162Z,71.30
2018-12-05T12:29:54.675Z,73.23
2018-12-05T12:32:25.388Z,75.80
2018-12-05T12:34:55.935Z,71.13
2018-12-05T12:37:26.466Z,86.57
2018-12-05T12:39:57.009Z,84.57
2018-12-05T12:42:27.590Z,74.77
2018-12-05T12:44:58.098Z,79.57
2018-12-05T12:47:28.630Z,88.50
2018-12-05T12:49:59.228Z,84.93
2018-12-05T12:52:29.867Z,83.00
2018-12-05T12:55:00.388Z,82.53
2018-12-05T12:57:31.350Z,99.43
2018-12-05T13:00:01.930Z,91.77
2018-12-05T13:02:32.485Z,76.83
2018-12-05T13:05:02.969Z,77.53
2018-12-05T13:07:33.549Z,93.80
2018-12-05T13:10:04.096Z,85.67
2018-12-05T13:12:34.988Z,81.77
2018-12-05T13:15:05.872Z,80.10
2018-12-05T13:17:36.364Z,77.80
2018-12-05T13:20:07.471Z,80.10
2018-12-05T13:22:38.092Z,79.50
2018-12-05T13:25:08.626Z,76.67
2018-12-05T13:27:39.206Z,80.33
2018-12-05T13:30:09.754Z,78.90
2018-12-05T13:32:40.531Z,70.27
2018-12-05T13:35:11.077Z,64.93
2018-12-05T13:37:41.654Z,71.50
2018-12-05T13:40:12.394Z,65.13
2018-12-05T13:42:42.952Z,84.27
2018-12-05T13:45:13.473Z,75.93
2018-12-05T13:47:44.021Z,76.33
2018-12-05T13:50:14.646Z,81.00
2018-12-05T13:52:45.420Z,82.03
2018-12-05T13:55:16.051Z,84.73
2018-12-05T13:57:46.547Z,85.60
2018-12-05T14:00:17.125Z,88.53
2018-12-05T14:02:47.699Z,99.73
2018-12-05T14:05:18.143Z,147.57
2018-12-05T14:07:48.691Z,168.47
2018-12-05T14:10:19.177Z,230.47
2018-12-05T14:12:50.082Z,280.00
2018-12-05T14:15:20.488Z,265.73
2018-12-05T14:17:50.932Z,198.93
2018-12-05T14:20:21.496Z,66.60
2018-12-05T14:22:52.034Z,54.23
2018-12-05T14:25:22.646Z,57.27
2018-12-05T14:27:53.157Z,49.97
2018-12-05T14:30:23.668Z,50.97
2018-12-05T14:32:54.297Z,48.57
2018-12-05T14:35:24.755Z,48.40
2018-12-05T14:37:55.355Z,45.53
2018-12-05T14:40:25.869Z,41.10
2018-12-05T14:42:56.480Z,40.63
2018-12-05T14:45:27.031Z,39.53
2018-12-05T14:47:57.435Z,38.50
2018-12-05T14:50:28.025Z,48.43
2018-12-05T14:52:59.178Z,37.57
2018-12-05T14:55:29.634Z,38.83
2018-12-05T14:58:00.104Z,39.60
2018-12-05T15:00:30.630Z,34.80
2018-12-05T15:03:01.222Z,38.03
2018-12-05T15:05:31.582Z,31.70
2018-12-05T15:08:02.185Z,31.77
2018-12-05T15:10:33.602Z,32.27
2018-12-05T15:13:04.388Z,33.67
2018-12-05T15:15:34.801Z,31.43
2018-12-05T15:18:05.380Z,31.43
2018-12-05T15:20:36.014Z,27.70
2018-12-05T15:23:06.596Z,28.50
2018-12-05T15:25:37.139Z,31.03
2018-12-05T15:28:07.670Z,30.27
2018-12-05T15:30:38.401Z,29.27
2018-12-05T15:33:09.102Z,26.80
2018-12-05T15:35:39.644Z,28.37
2018-12-05T15:38:10.304Z,30.93
2018-12-05T15:40:40.780Z,26.13
2018-12-05T15:43:11.248Z,29.43
2018-12-05T15:45:41.809Z,37.90
2018-12-05T15:48:12.350Z,28.40
2018-12-05T15:50:42.803Z,46.27
2018-12-05T15:53:13.336Z,34.80
2018-12-05T15:55:43.870Z,49.17
2018-12-05T15:58:14.340Z,112.67
2018-12-05T16:00:44.893Z,100.07
2018-12-05T16:03:15.387Z,69.00
2018-12-05T16:05:45.958Z,65.63
2018-12-05T16:08:16.564Z,157.27
2018-12-05T16:10:47.081Z,107.03
2018-12-05T16:13:17.892Z,119.90
2018-12-05T16:15:48.452Z,102.83
2018-12-05T16:18:18.924Z,84.93
2018-12-05T16:20:49.529Z,79.00
2018-12-05T16:23:20.064Z,81.10
2018-12-05T16:25:50.521Z,72.63
2018-12-05T16:28:21.021Z,71.17
2018-12-05T16:30:51.527Z,48.07
2018-12-05T16:33:22.091Z,55.67
2018-12-05T16:35:52.672Z,48.53
2018-12-05T16:38:23.224Z,41.57
2018-12-05T16:40:53.767Z,37.40
2018-12-05T16:43:24.336Z,42.93
2018-12-05T16:45:54.893Z,39.97
2018-12-05T16:48:25.427Z,36.20
2018-12-05T16:50:55.987Z,37.97
2018-12-05T16:53:26.481Z,43.23
2018-12-05T16:55:57.047Z,28.70
2018-12-05T16:58:27.546Z,31.80
2018-12-05T17:00:58.081Z,31.13
2018-12-05T17:03:28.717Z,23.57
2018-12-05T17:05:59.254Z,20.30
2018-12-05T17:08:29.813Z,17.03
2018-12-05T17:11:00.395Z,14.40
2018-12-05T17:13:34.763Z,19.30
2018-12-05T17:16:05.304Z,30.47
2018-12-05T17:18:35.880Z,22.73
2018-12-05T17:21:06.645Z,25.90
2018-12-05T17:23:37.195Z,18.63
2018-12-05T17:26:07.742Z,26.40
2018-12-05T17:28:38.271Z,26.43
2018-12-05T17:31:08.775Z,18.77
2018-12-05T17:33:39.338Z,25.40
2018-12-05T17:36:09.900Z,32.17
2018-12-05T17:38:40.361Z,38.70
2018-12-05T17:41:10.911Z,29.30
2018-12-05T17:43:42.517Z,36.73
2018-12-05T17:46:13.219Z,20.27
2018-12-05T17:48:43.730Z,22.50
2018-12-05T17:51:14.242Z,23.73
2018-12-05T17:53:45.934Z,18.00
2018-12-05T17:56:16.469Z,19.93
2018-12-05T17:58:46.997Z,17.13
2018-12-05T18:01:17.592Z,28.13
2018-12-05T18:03:48.078Z,39.53
2018-12-05T18:06:18.632Z,25.33
2018-12-05T18:08:49.116Z,17.07
2018-12-05T18:11:19.648Z,15.67
2018-12-05T18:13:50.328Z,20.27
2018-12-05T18:16:20.906Z,16.37
2018-12-05T18:18:51.425Z,15.10
2018-12-05T18:21:21.917Z,12.60
2018-12-05T18:23:52.364Z,15.77
2018-12-05T18:26:22.904Z,15.10
2018-12-05T18:28:53.536Z,15.33
2018-12-05T18:31:24.038Z,14.03
2018-12-05T18:33:54.789Z,16.53
2018-12-05T18:36:25.330Z,19.03
2018-12-05T18:38:55.941Z,13.63
2018-12-05T18:41:26.440Z,14.93
2018-12-05T18:43:57.400Z,10.70
2018-12-05T18:46:27.940Z,13.23
2018-12-05T18:48:58.481Z,11.37
2018-12-05T18:51:29.096Z,10.10
2018-12-05T18:53:59.620Z,10.90
2018-12-05T18:56:30.118Z,13.47
2018-12-05T18:59:00.557Z,11.80
2018-12-05T19:01:31.033Z,14.57
2018-12-05T19:04:01.482Z,15.80
2018-12-05T19:06:32.099Z,14.17
2018-12-05T19:09:02.733Z,14.67
2018-12-05T19:11:34.730Z,15.63
2018-12-05T19:14:10.376Z,16.57
2018-12-05T19:16:40.997Z,12.83
2018-12-05T19:19:11.565Z,12.57
2018-12-05T19:21:42.107Z,12.70
2018-12-05T19:24:12.636Z,15.80
2018-12-05T19:26:43.418Z,14.97
2018-12-05T19:29:13.888Z,11.30
2018-12-05T19:31:44.472Z,11.07
2018-12-05T19:34:16.003Z,12.47
2018-12-05T19:36:46.728Z,13.00
2018-12-05T19:39:17.241Z,18.63
2018-12-05T19:41:47.806Z,13.37
2018-12-05T19:44:18.308Z,17.07
2018-12-05T19:46:48.803Z,15.50
2018-12-05T19:49:19.443Z,16.07
2018-12-05T19:51:49.924Z,15.93
2018-12-05T19:54:20.766Z,15.90
2018-12-05T19:56:51.431Z,10.50
2018-12-05T19:59:21.968Z,9.70
2018-12-05T20:01:52.540Z,9.70
2018-12-05T20:04:23.047Z,15.30
2018-12-05T20:06:53.528Z,11.53
2018-12-05T20:09:24.044Z,12.47
2018-12-05T20:11:54.562Z,12.13
2018-12-05T20:14:30.213Z,17.13
2018-12-05T20:17:00.764Z,15.47
2018-12-05T20:19:31.322Z,13.33
2018-12-05T20:22:01.809Z,13.30
2018-12-05T20:24:32.313Z,18.03
2018-12-05T20:27:02.832Z,12.23
2018-12-05T20:29:33.259Z,16.30
2018-12-05T20:32:04.397Z,16.90
2018-12-05T20:34:36.729Z,14.80
2018-12-05T20:37:07.224Z,16.53
2018-12-05T20:39:37.657Z,13.20
2018-12-05T20:42:08.105Z,17.53
2018-12-05T20:44:38.507Z,16.33
2018-12-05T20:47:09.067Z,18.03
2018-12-05T20:49:39.422Z,18.87
2018-12-05T20:52:09.849Z,21.87
2018-12-05T20:54:41.501Z,23.33
2018-12-05T20:57:11.920Z,17.67
2018-12-05T20:59:43.130Z,14.33
2018-12-05T21:02:13.755Z,18.30
2018-12-05T21:04:44.347Z,19.40
2018-12-05T21:07:14.812Z,18.77
2018-12-05T21:09:45.212Z,20.30
2018-12-05T21:12:15.684Z,12.80
2018-12-05T21:14:46.318Z,20.70
2018-12-05T21:17:16.737Z,19.07
2018-12-05T21:19:47.241Z,18.43
2018-12-05T21:22:17.693Z,14.57
2018-12-05T21:24:48.168Z,19.63
2018-12-05T21:27:18.691Z,21.27
2018-12-05T21:29:49.193Z,16.80
2018-12-05T21:32:19.745Z,11.73
2018-12-05T21:34:50.286Z,16.63
2018-12-05T21:37:20.702Z,18.40
2018-12-05T21:39:51.215Z,18.07
2018-12-05T21:42:22.037Z,18.13
2018-12-05T21:44:52.559Z,13.30
2018-12-05T21:47:22.998Z,22.60
2018-12-05T21:49:53.447Z,21.70
2018-12-05T21:52:24.029Z,15.87
2018-12-05T21:54:56.634Z,18.70
2018-12-05T21:57:27.321Z,17.10
2018-12-05T21:59:57.825Z,17.60
2018-12-05T22:02:29.297Z,14.50
2018-12-05T22:04:59.729Z,18.53
2018-12-05T22:07:30.177Z,17.30
2018-12-05T22:10:00.627Z,14.17
2018-12-05T22:12:31.041Z,18.23
2018-12-05T22:15:05.251Z,19.23
2018-12-05T22:17:35.911Z,13.67
2018-12-05T22:20:07.421Z,22.13
2018-12-05T22:22:37.888Z,15.33
2018-12-05T22:25:08.409Z,18.70
2018-12-05T22:27:38.942Z,17.07
2018-12-05T22:30:10.072Z,14.33
2018-12-05T22:32:40.543Z,11.67
2018-12-05T22:35:10.537Z,16.13
2018-12-05T22:37:40.987Z,14.07
2018-12-05T22:40:11.500Z,15.63
2018-12-05T22:42:41.991Z,14.57
2018-12-05T22:45:13.158Z,16.60
2018-12-05T22:47:43.619Z,16.00
2018-12-05T22:50:13.996Z,12.63
2018-12-05T22:52:44.501Z,13.17
2018-12-05T22:55:15.140Z,12.27
2018-12-05T22:57:45.636Z,11.00
2018-12-05T23:00:23.413Z,9.83
2018-12-05T23:02:55.956Z,13.17
2018-12-05T23:05:26.446Z,13.00
2018-12-05T23:07:56.956Z,12.17
2018-12-05T23:10:27.396Z,13.87
2018-12-05T23:12:57.874Z,10.90
2018-12-05T23:15:28.824Z,8.53
2018-12-05T23:17:59.349Z,11.70
2018-12-05T23:20:29.858Z,8.20
2018-12-05T23:23:00.283Z,10.17
2018-12-05T23:25:30.807Z,11.17
2018-12-05T23:28:01.277Z,7.60
2018-12-05T23:34:02.809Z,7.90
2018-12-05T23:36:33.303Z,12.33
2018-12-05T23:39:04.860Z,8.73
2018-12-05T23:41:35.359Z,10.30
2018-12-05T23:44:05.815Z,7.73
2018-12-05T23:46:36.349Z,8.97
2018-12-05T23:49:06.761Z,8.20
2018-12-05T23:51:37.196Z,13.53
2018-12-05T23:54:07.640Z,11.00
2018-12-05T23:56:38.074Z,8.13
2018-12-05T23:59:08.534Z,10.43
